Latest Weather Observations for Amberley

IDQ60801

Issued at 2:02 pm EST Sunday 1 May 2016 (issued every 30 minutes, with the page automatically refreshed every 10 minutes)

About weather observations | Map of weather stations | Latest weather observations for QLD | Other Formats
Station Details ID: 040004 Name: AMBERLEY AMO Lat: -27.63 Lon: 152.71 Height: 24.2 m
Data from the previous 72 hours. | See also: Recent months at Amberley
Date/Time
EST
Temp
°C
App
Temp
°C
Dew
Point
Rel
Hum
%
Delta-T
°C
Wind Press
QNH
hPa
Press
MSL
hPa
Rain
since 9 am
mm
Dir
 
Spd
km/h
Gust
km/h
Spd
kts
Gust
kts
01/02:00pm 24.8 26.3 19.8 74 3.2 NE 11 17 6 9 1014.9 1014.9 0.8
01/01:30pm 24.5 26.6 20.2 77 2.8 ENE 9 13 5 7 1015.3 1015.3 0.8
01/01:00pm 23.9 26.7 19.7 77 2.7 ENE 4 11 2 6 1015.9 1015.9 0.8
01/12:30pm 23.3 25.9 20.0 82 2.1 ENE 6 9 3 5 1016.5 1016.5 0.8
01/12:00pm 23.3 26.2 20.7 85 1.7 ENE 6 11 3 6 1017.0 1017.0 0.8
01/11:51am 23.0 26.6 20.5 86 1.6 NE 2 9 1 5 1017.1 1017.1 0.8
01/11:30am 22.6 25.6 20.8 89 1.2 NE 6 9 3 5 1017.7 1017.7 0.8
01/11:00am 22.4 25.1 21.3 93 0.7 E 9 13 5 7 1017.9 1017.9 0.8
01/10:59am 22.6 24.9 21.4 93 0.8 E 11 13 6 7 1017.9 1017.9 0.8
01/10:30am 22.2 25.1 21.1 93 0.7 NE 7 9 4 5 1018.5 1018.5 0.4
01/10:29am 22.1 25.0 21.0 93 0.7 NE 7 9 4 5 1018.5 1018.5 0.4
01/10:00am 22.0 25.0 20.9 93 0.7 N 6 11 3 6 1018.8 1018.8 0.2
01/09:30am 21.8 25.2 21.0 95 0.5 NNE 4 13 2 7 1018.9 1018.8 0.2
01/09:19am 21.7 24.1 20.9 95 0.5 NNE 9 13 5 7 1019.1 1019.0 0.2
01/09:00am 21.5 23.2 20.9 96 0.4 ENE 13 15 7 8 1019.2 1019.1 4.2
01/08:30am 21.2 23.9 20.7 97 0.3 SE 7 7 4 4 1019.4 1019.3 3.2
01/08:00am 21.2 23.9 20.7 97 0.3 SSW 7 7 4 4 1019.3 1019.2 1.8
01/07:41am 20.7 24.5 20.2 97 0.3 CALM 0 0 0 0 1019.2 1019.1 1.4
01/07:30am 20.5 24.2 20.0 97 0.3 CALM 0 0 0 0 1018.9 1018.8 1.0
01/07:10am 20.2 23.8 19.7 97 0.3 CALM 0 0 0 0 1018.9 1018.8 0.8
01/07:00am 20.1 23.6 19.6 97 0.3 CALM 0 0 0 0 1018.7 1018.6 0.8
01/06:30am 19.8 23.2 19.3 97 0.3 CALM 0 0 0 0 1018.6 1018.5 0.2
01/06:19am 19.9 22.6 19.4 97 0.3 SSW 4 7 2 4 1018.5 1018.4 0.2
01/06:00am 19.9 22.9 19.3 96 0.4 SSW 2 7 1 4 1018.4 1018.3 0.0
01/05:30am 19.7 21.9 19.1 96 0.4 SSW 6 7 3 4 1017.9 1017.8 0.0
01/05:00am 20.2 22.5 19.4 95 0.5 SW 6 7 3 4 1017.7 1017.6 0.0
01/04:30am 19.7 23.0 19.1 96 0.4 CALM 0 0 0 0 1017.7 1017.6 0.0
01/04:00am 19.3 21.7 18.8 97 0.3 SSW 4 9 2 5 1017.5 1017.4 0.0
01/03:30am 19.2 21.2 18.7 97 0.3 S 6 7 3 4 1017.5 1017.4 0.0
01/03:00am 19.4 22.6 18.8 96 0.4 CALM 0 0 0 0 1017.5 1017.4 0.0
01/02:45am 18.9 21.9 18.4 97 0.3 CALM 0 0 0 0 1017.6 1017.5 0.0
01/02:30am 18.6 21.5 18.1 97 0.3 CALM 0 0 0 0 1017.8 1017.7 0.0
01/02:10am 18.5 21.3 18.0 97 0.3 CALM 0 0 0 0 1017.9 1017.8 0.0
01/02:00am 18.8 21.7 18.3 97 0.3 CALM 0 0 0 0 1018.0 1017.9 0.0
01/01:30am 19.3 22.4 18.7 96 0.4 CALM 0 0 0 0 1018.3 1018.2 0.0
01/01:12am 19.1 22.2 18.6 97 0.3 CALM 0 0 0 0 1018.4 1018.3 0.0
01/01:00am 18.7 21.6 18.2 97 0.3 CALM 0 0 0 0 1018.6 1018.5 0.0
01/12:30am 19.2 20.9 18.6 96 0.4 SSW 7 9 4 5 1018.8 1018.7 0.0
01/12:18am 19.3 21.3 18.7 96 0.4 S 6 7 3 4 1018.9 1018.8 0.0
01/12:00am 20.3 22.0 19.3 94 0.6 SSW 9 9 5 5 1019.0 1018.9 0.0
 
Date/Time
EST
Temp
°C
App
Temp
°C
Dew
Point
Rel
Hum
%
Delta-T
°C
Wind Press
QNH
hPa
Press
MSL
hPa
Rain
since 9 am
mm
Dir
 
Spd
km/h
Gust
km/h
Spd
kts
Gust
kts
30/11:30pm 20.9 22.7 19.6 92 0.8 S 9 9 5 5 1019.3 1019.2 0.0
30/11:00pm 20.9 23.9 19.3 90 1.0 S 2 9 1 5 1019.5 1019.4 0.0
30/10:30pm 21.3 24.8 19.6 90 1.1 CALM 0 0 0 0 1019.6 1019.5 0.0
30/10:00pm 21.5 24.0 19.8 90 1.1 E 6 7 3 4 1019.6 1019.5 0.0
30/09:30pm 21.5 23.3 19.6 89 1.2 E 9 9 5 5 1019.7 1019.6 0.0
30/09:00pm 22.4 24.8 20.1 87 1.5 E 7 9 4 5 1019.7 1019.6 0.0
30/08:30pm 23.1 25.2 20.2 84 1.9 E 9 13 5 7 1019.6 1019.5 0.0
30/08:00pm 23.3 24.6 20.2 83 2.0 ENE 13 19 7 10 1019.5 1019.4 0.0
30/07:30pm 23.8 25.3 19.8 78 2.6 ENE 11 17 6 9 1019.3 1019.2 0.0
30/07:00pm 24.2 24.5 19.7 76 2.9 NE 17 22 9 12 1018.8 1018.7 0.0
30/06:30pm 24.3 24.4 19.1 73 3.3 ENE 17 24 9 13 1018.7 1018.6 0.0
30/06:00pm 24.6 24.5 18.8 70 3.7 NE 17 26 9 14 1018.5 1018.4 0.0
30/05:30pm 25.1 24.0 18.6 67 4.1 NE 22 30 12 16 1018.1 1018.0 0.0
30/05:00pm 25.7 24.7 18.8 65 4.4 ENE 22 32 12 17 1017.7 1017.6 0.0
30/04:30pm 26.8 25.5 18.1 59 5.5 NE 22 33 12 18 1017.4 1017.3 0.0
30/04:00pm 27.8 26.2 17.5 53 6.5 E 22 30 12 16 1017.2 1017.1 0.0
30/03:30pm 28.8 27.6 17.0 49 7.4 E 19 28 10 15 1017.0 1016.9 0.0
30/03:00pm 29.3 28.8 15.9 44 8.3 NNE 13 20 7 11 1017.1 1017.0 0.0
30/02:30pm 29.0 29.3 16.1 45 8.0 ENE 9 17 5 9 1017.1 1017.0 0.0
30/02:00pm 29.1 29.1 16.2 45 8.0 NNE 11 17 6 9 1017.5 1017.4 0.0
30/01:30pm 28.5 28.5 16.2 47 7.6 NE 11 17 6 9 1017.7 1017.6 0.0
30/01:00pm 29.2 29.4 16.7 46 7.8 NE 11 17 6 9 1018.1 1018.0 0.0
30/12:30pm 28.3 28.9 18.6 55 6.2 N 13 17 7 9 1018.7 1018.6 0.0
30/12:00pm 27.3 28.2 19.2 61 5.2 NE 13 19 7 10 1019.3 1019.2 0.0
30/11:30am 26.9 28.0 18.9 61 5.1 N 11 19 6 10 1020.0 1019.9 0.0
30/11:00am 26.0 28.4 19.6 68 4.1 NNE 6 19 3 10 1020.7 1020.6 0.0
30/10:30am 23.7 25.4 20.1 80 2.3 NNW 11 15 6 8 1021.3 1021.2 0.0
30/10:00am 23.1 26.7 19.8 82 2.1 CALM 0 0 0 0 1021.5 1021.4 0.0
30/09:30am 23.0 25.4 19.6 81 2.2 SSW 6 9 3 5 1021.8 1021.7 0.0
30/09:00am 22.4 24.5 19.4 83 1.9 S 7 13 4 7 1021.8 1021.7 4.0
30/08:30am 21.3 22.7 18.7 85 1.6 SSW 9 11 5 6 1021.9 1021.8 4.0
30/08:00am 20.0 21.7 18.4 90 1.0 SSW 7 9 4 5 1021.6 1021.5 4.0
30/07:45am 19.6 22.1 18.1 91 0.9 SSW 2 7 1 4 1021.5 1021.4 4.0
30/07:30am 19.6 22.6 18.5 93 0.7 CALM 0 0 0 0 1021.5 1021.4 4.0
30/07:09am 19.4 22.6 18.8 96 0.4 CALM 0 0 0 0 1021.3 1021.2 4.0
30/07:00am 19.2 22.3 18.6 96 0.4 CALM 0 0 0 0 1021.2 1021.1 4.0
30/06:44am 19.0 22.0 18.5 97 0.3 CALM 0 0 0 0 1021.0 1020.9 4.0
30/06:33am 18.9 21.9 18.4 97 0.3 CALM 0 0 0 0 1021.0 1020.9 4.0
30/06:30am 18.9 21.9 18.4 97 0.3 CALM 0 0 0 0 1020.9 1020.8 4.0
30/06:25am 18.9 21.9 18.4 97 0.3 CALM 0 0 0 0 1020.9 1020.8 4.0
30/06:00am 19.1 22.1 18.5 96 0.4 CALM 0 0 0 0 1020.6 1020.5 4.0
30/05:57am 19.1 22.2 18.6 97 0.3 CALM 0 0 0 0 1020.6 1020.5 4.0
30/05:39am 19.3 22.4 18.7 96 0.4 CALM 0 0 0 0 1020.6 1020.5 4.0
30/05:31am 19.4 22.5 18.6 95 0.5 CALM 0 0 0 0 1020.6 1020.5 3.8
30/05:30am 19.4 22.5 18.6 95 0.5 CALM 0 0 0 0 1020.6 1020.5 3.8
30/05:00am 19.2 22.3 18.6 96 0.4 CALM 0 0 0 0 1020.4 1020.3 3.8
30/04:30am 19.2 22.3 18.6 96 0.4 CALM 0 0 0 0 1020.2 1020.1 3.8
30/04:21am 19.1 22.2 18.6 97 0.3 CALM 0 0 0 0 1020.1 1020.0 3.8
30/04:00am 19.1 22.1 18.5 96 0.4 CALM 0 0 0 0 1019.9 1019.8 3.8
30/03:30am 19.2 22.3 18.7 97 0.3 CALM 0 0 0 0 1020.1 1020.0 3.8
30/03:00am 19.0 21.6 18.4 96 0.4 SSW 2 6 1 3 1020.2 1020.1 3.8
30/02:30am 19.1 20.9 18.3 95 0.5 SSW 6 7 3 4 1020.3 1020.2 3.8
30/02:06am 19.2 19.7 18.4 95 0.5 SSW 13 13 7 7 1020.7 1020.6 3.8
30/02:00am 19.1 20.0 18.5 96 0.4 SSW 11 13 6 7 1020.8 1020.7 3.8
30/01:37am 19.1 21.8 18.6 97 0.3 SW 2 13 1 7 1021.2 1021.1 1.4
30/01:31am 19.2 22.2 18.4 95 0.5 CALM 0 0 0 0 1021.0 1020.9 0.8
30/01:30am 19.2 22.2 18.4 95 0.5 CALM 0 0 0 0 1021.0 1020.9 0.8
30/01:16am 19.2 22.3 18.7 97 0.3 CALM 0 0 0 0 1021.0 1020.9 0.4
30/01:00am 18.8 21.7 18.3 97 0.3 CALM 0 0 0 0 1021.2 1021.1 0.2
30/12:58am 18.6 21.5 18.1 97 0.3 CALM 0 0 0 0 1021.2 1021.1 0.2
30/12:30am 19.1 22.1 18.5 96 0.4 CALM 0 0 0 0 1021.3 1021.2 0.2
30/12:03am 19.7 22.9 18.9 95 0.5 CALM 0 0 0 0 1021.3 1021.2 0.2
30/12:00am 19.7 22.9 18.9 95 0.5 CALM 0 0 0 0 1021.4 1021.3 0.2
 
Date/Time
EST
Temp
°C
App
Temp
°C
Dew
Point
Rel
Hum
%
Delta-T
°C
Wind Press
QNH
hPa
Press
MSL
hPa
Rain
since 9 am
mm
Dir
 
Spd
km/h
Gust
km/h
Spd
kts
Gust
kts
29/11:30pm 20.0 22.4 18.9 93 0.7 NW 4 9 2 5 1021.9 1021.8 0.2
29/11:00pm 20.0 22.6 18.4 90 1.0 WNW 2 7 1 4 1022.1 1022.0 0.2
29/10:30pm 19.7 21.4 18.4 92 0.8 NW 7 9 4 5 1022.3 1022.2 0.2
29/10:00pm 19.7 21.1 18.6 93 0.7 NNW 9 11 5 6 1022.4 1022.3 0.2
29/09:30pm 20.6 22.9 18.5 88 1.3 WNW 4 7 2 4 1022.4 1022.3 0.2
29/09:00pm 20.4 23.6 18.8 90 1.0 CALM 0 0 0 0 1022.3 1022.2 0.2
29/08:30pm 20.5 23.7 18.9 90 1.0 CALM 0 0 0 0 1022.1 1022.0 0.2
29/08:00pm 21.0 24.3 19.1 89 1.2 CALM 0 0 0 0 1022.0 1021.9 0.2
29/07:30pm 21.2 24.5 19.0 87 1.4 CALM 0 0 0 0 1021.9 1021.8 0.2
29/07:00pm 21.1 23.5 18.9 87 1.4 E 4 7 2 4 1021.7 1021.6 0.2
29/06:30pm 21.1 22.2 18.9 87 1.4 ESE 11 15 6 8 1021.3 1021.2 0.2
29/06:00pm 22.1 22.2 19.1 83 1.9 ENE 17 26 9 14 1021.2 1021.1 0.0
29/05:30pm 23.0 22.4 18.4 75 2.9 ENE 19 24 10 13 1020.8 1020.7 0.0
29/05:00pm 23.0 22.2 18.4 75 2.9 NE 20 30 11 16 1020.3 1020.2 0.0
29/04:30pm 24.2 23.7 17.8 67 4.0 E 17 20 9 11 1019.9 1019.8 0.0
29/04:00pm 25.3 23.5 16.9 59 5.2 E 22 28 12 15 1019.6 1019.5 0.0
29/03:30pm 26.3 27.4 17.0 56 5.8 NE 7 11 4 6 1019.6 1019.5 0.0
29/03:00pm 25.0 26.1 17.1 61 4.9 N 7 11 4 6 1019.7 1019.6 0.0
29/02:30pm 24.3 25.1 17.2 64 4.4 NE 9 15 5 8 1020.0 1019.9 0.0
29/02:00pm 24.4 22.8 16.6 61 4.8 NE 20 33 11 18 1020.2 1020.1 0.0
29/01:30pm 25.3 24.1 17.1 60 5.1 E 19 26 10 14 1020.2 1020.1 0.0
29/01:00pm 25.5 25.5 17.1 59 5.2 NE 13 20 7 11 1020.3 1020.2 0.0
29/12:30pm 25.1 24.9 17.6 63 4.7 ENE 15 19 8 10 1021.0 1020.9 0.0
29/12:00pm 24.5 24.4 17.0 63 4.6 E 13 17 7 9 1021.6 1021.5 0.0
29/11:30am 23.1 23.4 17.1 69 3.7 E 11 15 6 8 1022.3 1022.2 0.0
29/11:00am 22.9 23.1 17.7 72 3.2 E 13 17 7 9 1023.1 1023.0 0.0
29/10:30am 22.1 22.9 17.2 74 3.0 NNW 9 13 5 7 1023.7 1023.6 0.0
29/10:16am 21.2 21.5 17.1 77 2.5 N 11 15 6 8 1024.0 1023.9 0.0
29/10:00am 21.9 22.7 16.4 71 3.3 SW 7 9 4 5 1024.1 1024.0 0.0
29/09:30am 21.2 23.2 16.0 72 3.1 CALM 0 9 0 5 1024.3 1024.2 0.0
29/09:00am 20.0 20.2 15.8 77 2.5 SSW 9 11 5 6 1024.2 1024.1 0.0
29/08:30am 18.2 19.0 15.8 86 1.4 SSW 6 9 3 5 1024.2 1024.1 0.0
29/08:00am 17.1 17.7 15.7 91 0.8 S 7 9 4 5 1024.0 1023.9 0.0
29/07:30am 15.5 17.1 14.8 96 0.4 CALM 0 7 0 4 1023.9 1023.8 0.0
29/07:00am 13.8 13.6 13.1 96 0.4 WNW 6 7 3 4 1023.5 1023.4 0.0
29/06:30am 12.7 13.5 12.5 99 0.1 CALM 0 0 0 0 1023.1 1023.0 0.0
29/06:00am 12.2 12.8 12.0 99 0.1 CALM 0 0 0 0 1023.2 1023.1 0.0
29/05:30am 13.4 14.4 13.2 99 0.1 CALM 0 0 0 0 1022.9 1022.8 0.0
29/05:00am 13.1 13.9 12.5 96 0.3 CALM 0 0 0 0 1022.3 1022.2 0.0
29/04:30am 13.5 14.5 13.1 97 0.2 CALM 0 0 0 0 1022.2 1022.1 0.0
29/04:00am 14.2 15.4 13.7 97 0.3 CALM 0 0 0 0 1022.3 1022.2 0.0
29/03:30am 13.1 13.5 12.5 96 0.3 WNW 2 7 1 4 1022.2 1022.1 0.0
29/03:00am 14.0 15.1 13.5 97 0.3 CALM 0 0 0 0 1022.5 1022.4 0.0
29/02:30am 14.0 15.1 13.5 97 0.3 CALM 0 0 0 0 1022.2 1022.1 0.0
29/02:00am 14.7 16.1 14.3 97 0.2 CALM 0 0 0 0 1022.6 1022.5 0.0
29/01:30am 15.0 16.5 14.6 97 0.2 CALM 0 0 0 0 1023.0 1022.9 0.0
29/01:29am 15.2 16.7 14.7 97 0.3 CALM 0 0 0 0 1023.0 1022.9 0.0
29/01:17am 15.1 16.5 14.4 96 0.4 CALM 0 0 0 0 1023.1 1023.0 0.0
29/01:00am 15.3 16.9 14.8 97 0.3 CALM 0 0 0 0 1022.9 1022.8 0.0
29/12:59am 15.4 16.9 14.7 96 0.4 CALM 0 0 0 0 1022.9 1022.8 0.0
29/12:30am 15.9 17.5 15.0 94 0.5 CALM 0 0 0 0 1023.1 1023.0 0.0
29/12:00am 16.9 18.9 15.9 94 0.6 CALM 0 0 0 0 1023.2 1023.1 0.0
 
Date/Time
EST
Temp
°C
App
Temp
°C
Dew
Point
Rel
Hum
%
Delta-T
°C
Wind Press
QNH
hPa
Press
MSL
hPa
Rain
since 9 am
mm
Dir
 
Spd
km/h
Gust
km/h
Spd
kts
Gust
kts
28/11:30pm 16.9 18.9 15.9 94 0.6 CALM 0 0 0 0 1023.4 1023.3 0.0
28/11:00pm 17.1 19.0 15.7 91 0.8 CALM 0 0 0 0 1023.6 1023.5 0.0
28/10:30pm 17.5 19.3 15.6 89 1.1 CALM 0 0 0 0 1023.7 1023.6 0.0
28/10:00pm 17.7 19.6 15.7 88 1.2 CALM 0 0 0 0 1023.6 1023.5 0.0
28/09:30pm 17.8 19.8 15.9 89 1.1 CALM 0 0 0 0 1023.6 1023.5 0.0
28/09:00pm 19.4 19.8 16.2 82 1.9 S 9 11 5 6 1023.7 1023.6 0.0
28/08:30pm 19.8 20.6 16.3 80 2.1 SSW 7 9 4 5 1023.5 1023.4 0.0
28/08:00pm 19.8 20.5 16.1 79 2.2 ESE 7 9 4 5 1023.2 1023.1 0.0
28/07:30pm 21.3 21.8 16.5 74 2.9 ENE 9 13 5 7 1022.9 1022.8 0.0
28/07:00pm 21.4 21.5 16.6 74 2.9 E 11 13 6 7 1022.8 1022.7 0.0
28/06:30pm 22.3 22.0 16.5 69 3.5 E 13 17 7 9 1022.5 1022.4 0.0
28/06:00pm 23.1 22.1 16.5 66 4.0 ENE 17 24 9 13 1022.1 1022.0 0.0
28/05:30pm 23.6 22.1 16.4 64 4.4 ENE 19 28 10 15 1021.8 1021.7 0.0
28/05:00pm 24.3 21.5 15.3 57 5.4 ENE 24 33 13 18 1021.4 1021.3 0.0
28/04:30pm 25.0 23.7 15.8 56 5.6 ENE 17 26 9 14 1021.0 1020.9 0.0
28/04:00pm 26.6 23.4 15.4 50 6.8 E 26 37 14 20 1020.9 1020.8 0.0
28/03:30pm 27.4 23.7 15.0 46 7.5 E 28 37 15 20 1020.7 1020.6 0.0
28/03:00pm 27.7 23.9 13.7 42 8.3 ENE 26 33 14 18 1020.7 1020.6 0.0
28/02:30pm 28.0 25.2 14.3 43 8.2 NE 22 33 12 18 1020.5 1020.4 0.0

Other Formats:

Comma delimited format used in spreadsheet applications
http://www.bom.gov.au/fwo/IDQ60801/IDQ60801.94568.axf

JavaScript Object Notation format (JSON) in row-major order
http://www.bom.gov.au/fwo/IDQ60801/IDQ60801.94568.json